createdAt,value
2022-12-11T00:02:38.413Z,98881.34
2022-12-11T00:05:41.446Z,98884.00
2022-12-11T00:08:44.495Z,98880.47
2022-12-11T00:11:47.905Z,98858.37
2022-12-11T00:14:50.448Z,98843.25
2022-12-11T00:17:53.139Z,98850.37
2022-12-11T00:20:55.566Z,98853.84
2022-12-11T00:23:58.258Z,98845.03
2022-12-11T00:27:01.847Z,98862.75
2022-12-11T00:30:06.207Z,98876.00
2022-12-11T00:33:09.692Z,98843.25
2022-12-11T00:36:20.523Z,98853.00
2022-12-11T00:39:22.969Z,98845.91
2022-12-11T00:42:25.679Z,98860.97
2022-12-11T00:45:28.234Z,98841.50
2022-12-11T00:48:31.092Z,98851.22
2022-12-11T00:51:33.662Z,98849.44
2022-12-11T00:54:36.391Z,98869.78
2022-12-11T00:57:38.983Z,98846.78
2022-12-11T01:00:42.516Z,98872.47
2022-12-11T01:03:45.630Z,98868.94
2022-12-11T01:06:49.207Z,98880.44
2022-12-11T01:10:12.154Z,98847.69
2022-12-11T01:13:15.511Z,98862.72
2022-12-11T01:16:18.053Z,98869.81
2022-12-11T01:19:20.754Z,98895.47
2022-12-11T01:22:23.256Z,98891.97
2022-12-11T01:25:26.980Z,98889.31
2022-12-11T01:28:29.446Z,98902.59
2022-12-11T01:31:32.199Z,98918.53
2022-12-11T01:34:34.670Z,98881.34
2022-12-11T01:37:37.591Z,98898.16
2022-12-11T01:40:49.271Z,98896.37
2022-12-11T01:44:13.767Z,98894.59
2022-12-11T01:47:17.218Z,98897.34
2022-12-11T01:50:20.280Z,98906.13
2022-12-11T01:53:30.375Z,98904.34
2022-12-11T01:56:34.641Z,98914.06
2022-12-11T01:59:40.883Z,98926.47
2022-12-11T02:02:44.072Z,98914.09
2022-12-11T02:05:46.995Z,98919.37
2022-12-11T02:08:49.935Z,98925.59
2022-12-11T02:12:11.074Z,98914.06
2022-12-11T02:15:47.442Z,98927.34
2022-12-11T02:19:28.898Z,98935.34
2022-12-11T02:22:50.217Z,98935.34
2022-12-11T02:26:11.242Z,98935.31
2022-12-11T02:29:33.831Z,98927.34
2022-12-11T02:32:47.069Z,98933.56
2022-12-11T02:35:50.019Z,98928.25
2022-12-11T02:38:54.866Z,98932.66
2022-12-11T02:41:57.742Z,98915.84
2022-12-11T02:45:01.564Z,98914.97
2022-12-11T02:48:06.149Z,98933.56
2022-12-11T02:51:10.149Z,98929.13
2022-12-11T02:54:20.968Z,98922.03
2022-12-11T02:57:48.052Z,98907.91
2022-12-11T03:00:50.576Z,98891.97
2022-12-11T03:03:55.044Z,98890.19
2022-12-11T03:07:01.646Z,98878.69
2022-12-11T03:10:07.124Z,98880.44
2022-12-11T03:13:09.841Z,98878.75
2022-12-11T03:16:17.922Z,98882.28
2022-12-11T03:19:35.790Z,98879.63
2022-12-11T03:22:47.980Z,98884.97
2022-12-11T03:25:57.546Z,98878.75
2022-12-11T03:29:03.539Z,98886.66
2022-12-11T03:32:20.227Z,98878.75
2022-12-11T03:35:32.184Z,98898.22
2022-12-11T03:38:39.000Z,98888.50
2022-12-11T03:41:42.915Z,98884.97
2022-12-11T03:44:48.398Z,98863.72
2022-12-11T03:47:53.089Z,98873.47
2022-12-11T03:50:56.090Z,98886.75
2022-12-11T03:53:59.531Z,98889.41
2022-12-11T03:57:03.261Z,98886.75
2022-12-11T04:00:11.277Z,98873.47
2022-12-11T04:03:14.695Z,98885.00
2022-12-11T04:06:17.797Z,98882.34
2022-12-11T04:09:20.200Z,98880.59
2022-12-11T04:12:23.099Z,98883.31
2022-12-11T04:15:25.515Z,98856.78
2022-12-11T04:18:57.443Z,98892.16
2022-12-11T04:22:18.780Z,98892.16
2022-12-11T04:25:21.552Z,98882.41
2022-12-11T04:28:23.958Z,98887.72
2022-12-11T04:31:26.898Z,98868.28
2022-12-11T04:34:29.596Z,98872.69
2022-12-11T04:37:32.356Z,98894.78
2022-12-11T04:40:34.859Z,98886.84
2022-12-11T04:43:37.939Z,98893.03
2022-12-11T04:46:40.463Z,98897.44
2022-12-11T04:49:43.549Z,98909.81
2022-12-11T04:52:45.965Z,98923.06
2022-12-11T04:55:48.729Z,98924.84
2022-12-11T04:58:51.233Z,98922.22
2022-12-11T05:01:54.311Z,98941.66
2022-12-11T05:04:56.756Z,98948.72
2022-12-11T05:07:59.584Z,98950.47
2022-12-11T05:11:04.825Z,98941.63
2022-12-11T05:14:07.712Z,98941.63
2022-12-11T05:17:10.191Z,98956.66
2022-12-11T05:20:13.172Z,98953.12
2022-12-11T05:23:15.630Z,98965.47
2022-12-11T05:26:20.790Z,98969.91
2022-12-11T05:29:23.261Z,98972.56
2022-12-11T05:32:26.022Z,98991.12
2022-12-11T05:35:28.521Z,98985.81
2022-12-11T05:38:31.329Z,98991.12
2022-12-11T05:41:34.281Z,98997.31
2022-12-11T05:44:37.115Z,98989.34
2022-12-11T05:47:39.595Z,98993.78
2022-12-11T05:50:42.390Z,98999.06
2022-12-11T05:53:46.266Z,98999.94
2022-12-11T05:56:51.190Z,99025.59
2022-12-11T05:59:53.590Z,99021.16
2022-12-11T06:02:56.407Z,99013.19
2022-12-11T06:06:02.947Z,99007.91
2022-12-11T06:09:05.953Z,99009.69
2022-12-11T06:12:10.459Z,99002.59
2022-12-11T06:15:13.334Z,99006.12
2022-12-11T06:18:16.237Z,99008.75
2022-12-11T06:21:22.285Z,99017.59
2022-12-11T06:24:25.101Z,99025.50
2022-12-11T06:27:27.537Z,99031.66
2022-12-11T06:30:38.284Z,99026.34
2022-12-11T06:33:42.309Z,99031.66
2022-12-11T06:36:45.036Z,99039.56
2022-12-11T06:39:47.582Z,99046.59
2022-12-11T06:42:50.346Z,99052.78
2022-12-11T06:45:53.058Z,99045.66
2022-12-11T06:48:55.877Z,99048.28
2022-12-11T06:51:58.721Z,99055.34
2022-12-11T06:55:01.701Z,99071.19
2022-12-11T06:58:05.543Z,99066.78
2022-12-11T07:01:20.019Z,99063.22
2022-12-11T07:04:24.953Z,99068.50
2022-12-11T07:07:27.689Z,99082.62
2022-12-11T07:10:30.506Z,99087.03
2022-12-11T07:13:33.952Z,99087.03
2022-12-11T07:16:36.573Z,99099.38
2022-12-11T07:19:39.383Z,99092.31
2022-12-11T07:22:46.452Z,99103.75
2022-12-11T07:25:49.750Z,99094.94
2022-12-11T07:28:52.305Z,99109.94
2022-12-11T07:31:55.211Z,99095.78
2022-12-11T07:34:57.858Z,99114.25
2022-12-11T07:38:00.582Z,99125.69
2022-12-11T07:41:05.379Z,99125.66
2022-12-11T07:44:08.672Z,99123.00
2022-12-11T07:47:11.224Z,99130.06
2022-12-11T07:50:13.945Z,99132.69
2022-12-11T07:53:16.413Z,99138.88
2022-12-11T07:56:19.623Z,99131.81
2022-12-11T07:59:22.147Z,99130.06
2022-12-11T08:02:24.909Z,99137.13
2022-12-11T08:05:27.827Z,99139.78
2022-12-11T08:08:30.306Z,99142.44
2022-12-11T08:11:34.321Z,99140.72
2022-12-11T08:14:37.529Z,99137.25
2022-12-11T08:17:40.485Z,99139.00
2022-12-11T08:20:43.180Z,99144.34
2022-12-11T08:23:47.260Z,99145.28
2022-12-11T08:26:49.731Z,99148.78
2022-12-11T08:29:52.479Z,99156.72
2022-12-11T08:32:54.934Z,99149.66
2022-12-11T08:35:57.739Z,99151.41
2022-12-11T08:39:00.197Z,99175.25
2022-12-11T08:42:03.249Z,99170.00
2022-12-11T08:45:06.515Z,99167.34
2022-12-11T08:48:09.590Z,99170.87
2022-12-11T08:51:15.783Z,99170.00
2022-12-11T08:54:18.556Z,99171.78
2022-12-11T08:57:20.961Z,99163.91
2022-12-11T09:00:24.158Z,99171.03
2022-12-11T09:03:26.816Z,99176.41
2022-12-11T09:06:30.275Z,99176.38
2022-12-11T09:09:32.899Z,99178.13
2022-12-11T09:12:36.911Z,99188.78
2022-12-11T09:15:42.758Z,99156.97
2022-12-11T09:18:47.645Z,99180.91
2022-12-11T09:21:50.083Z,99168.59
2022-12-11T09:24:53.527Z,99202.25
2022-12-11T09:27:56.008Z,99165.19
2022-12-11T09:30:58.822Z,99185.53
2022-12-11T09:34:04.977Z,99159.94
2022-12-11T09:37:07.800Z,99168.81
2022-12-11T09:40:12.479Z,99187.41
2022-12-11T09:43:36.701Z,99159.09
2022-12-11T09:46:40.361Z,99161.78
2022-12-11T09:49:45.066Z,99165.31
2022-12-11T09:52:47.404Z,99168.03
2022-12-11T09:55:58.983Z,99175.97
2022-12-11T09:59:19.636Z,99165.38
2022-12-11T10:02:58.261Z,99168.91
2022-12-11T10:06:24.358Z,99168.91
2022-12-11T10:09:33.681Z,99180.41
2022-12-11T10:12:52.763Z,99169.75
2022-12-11T10:16:01.296Z,99175.94
2022-12-11T10:19:04.519Z,99168.84
2022-12-11T10:22:14.597Z,99161.75
2022-12-11T10:25:42.219Z,99152.88
2022-12-11T10:28:45.226Z,99159.06
2022-12-11T10:31:56.082Z,99154.63
2022-12-11T10:35:02.794Z,99153.72
2022-12-11T10:38:29.566Z,99149.28
2022-12-11T10:41:39.263Z,99167.84
2022-12-11T10:44:42.083Z,99170.44
2022-12-11T10:47:44.679Z,99168.66
2022-12-11T10:50:57.570Z,99166.88
2022-12-11T10:54:09.223Z,99151.91
2022-12-11T10:57:14.509Z,99155.50
2022-12-11T11:00:39.109Z,99155.50
2022-12-11T11:03:58.282Z,99150.19
2022-12-11T11:07:11.794Z,99124.47
2022-12-11T11:10:17.531Z,99157.25
2022-12-11T11:13:22.945Z,99144.06
2022-12-11T11:16:25.799Z,99159.09
2022-12-11T11:19:33.781Z,99164.41
2022-12-11T11:22:39.447Z,99161.72
2022-12-11T11:25:51.479Z,99153.78
2022-12-11T11:28:56.553Z,99148.47
2022-12-11T11:32:12.915Z,99140.50
2022-12-11T11:35:21.679Z,99142.25
2022-12-11T11:38:28.441Z,99140.47
2022-12-11T11:41:36.031Z,99151.94
2022-12-11T11:44:47.845Z,99151.09
2022-12-11T11:48:14.756Z,99158.12
2022-12-11T11:51:40.353Z,99154.59
2022-12-11T11:55:06.622Z,99153.72
2022-12-11T11:58:42.351Z,99143.97
2022-12-11T12:01:45.293Z,99148.41
2022-12-11T12:04:49.821Z,99161.66
2022-12-11T12:08:05.547Z,99149.28
2022-12-11T12:11:42.908Z,99164.28
2022-12-11T12:15:14.357Z,99154.56
2022-12-11T12:18:45.599Z,99149.28
2022-12-11T12:21:52.126Z,99132.50
2022-12-11T12:25:20.013Z,99150.19
2022-12-11T12:28:31.779Z,99151.06
2022-12-11T12:31:46.878Z,99149.31
2022-12-11T12:35:04.454Z,99147.53
2022-12-11T12:38:22.479Z,99158.16
2022-12-11T12:41:51.194Z,99151.09
2022-12-11T12:44:59.538Z,99129.00
2022-12-11T12:48:02.216Z,99136.94
2022-12-11T12:51:06.267Z,99140.44
2022-12-11T12:54:14.317Z,99151.09
2022-12-11T12:57:17.183Z,99152.84
2022-12-11T13:00:41.549Z,99158.16
2022-12-11T13:03:57.779Z,99151.94
2022-12-11T13:07:16.178Z,99169.59
2022-12-11T13:10:42.116Z,99183.72
2022-12-11T13:13:54.830Z,99190.78
2022-12-11T13:17:19.809Z,99186.31
2022-12-11T13:20:24.434Z,99185.44
2022-12-11T13:23:32.638Z,99188.06
2022-12-11T13:26:35.258Z,99195.06
2022-12-11T13:29:40.958Z,99199.50
2022-12-11T13:32:51.917Z,99195.94
2022-12-11T13:36:09.906Z,99201.28
2022-12-11T13:39:25.881Z,99204.78
2022-12-11T13:42:34.033Z,99200.37
2022-12-11T13:45:42.521Z,99203.88
2022-12-11T13:49:01.114Z,99200.34
2022-12-11T13:52:04.944Z,99202.09
2022-12-11T13:55:17.735Z,99215.34
2022-12-11T13:58:22.234Z,99203.91
2022-12-11T14:01:28.300Z,99208.28
2022-12-11T14:04:31.964Z,99214.44
2022-12-11T14:07:48.046Z,99203.00
2022-12-11T14:10:52.720Z,99224.13
2022-12-11T14:14:00.699Z,99233.84
2022-12-11T14:17:03.554Z,99221.41
2022-12-11T14:20:09.440Z,99230.28
2022-12-11T14:23:20.054Z,99208.97
2022-12-11T14:26:34.269Z,99252.31
2022-12-11T14:29:37.177Z,99255.88
2022-12-11T14:32:45.232Z,99248.78
2022-12-11T14:35:48.945Z,99249.66
2022-12-11T14:39:03.622Z,99237.31
2022-12-11T14:42:11.885Z,99239.06
2022-12-11T14:45:32.970Z,99239.97
2022-12-11T14:49:00.752Z,99253.16
2022-12-11T14:52:04.975Z,99273.41
2022-12-11T14:55:13.167Z,99265.50
2022-12-11T14:58:18.972Z,99279.63
2022-12-11T15:01:27.270Z,99267.25
2022-12-11T15:04:32.577Z,99283.97
2022-12-11T15:07:35.465Z,99283.16
2022-12-11T15:10:41.583Z,99286.63
2022-12-11T15:13:54.696Z,99299.84
2022-12-11T15:16:57.670Z,99301.59
2022-12-11T15:20:05.962Z,99298.03
2022-12-11T15:23:08.621Z,99303.31
2022-12-11T15:26:11.803Z,99305.06
2022-12-11T15:29:38.419Z,99308.59
2022-12-11T15:32:41.815Z,99312.97
2022-12-11T15:36:00.604Z,99315.59
2022-12-11T15:39:05.765Z,99321.84
2022-12-11T15:42:10.696Z,99313.03
2022-12-11T15:45:22.016Z,99309.47
2022-12-11T15:48:24.778Z,99328.72
2022-12-11T15:51:29.184Z,99320.94
2022-12-11T15:54:31.673Z,99324.41
2022-12-11T15:57:34.699Z,99340.13
2022-12-11T16:00:37.229Z,99323.44
2022-12-11T16:03:40.706Z,99336.63
2022-12-11T16:06:46.399Z,99325.06
2022-12-11T16:09:49.509Z,99336.63
2022-12-11T16:12:52.079Z,99326.91
2022-12-11T16:15:54.935Z,99335.66
2022-12-11T16:18:57.528Z,99339.19
2022-12-11T16:22:00.538Z,99327.66
2022-12-11T16:25:03.172Z,99339.09
2022-12-11T16:28:07.853Z,99347.13
2022-12-11T16:31:12.259Z,99344.47
2022-12-11T16:34:15.077Z,99355.94
2022-12-11T16:37:17.606Z,99345.31
2022-12-11T16:40:21.545Z,99354.94
2022-12-11T16:43:24.212Z,99343.50
2022-12-11T16:46:27.281Z,99354.06
2022-12-11T16:49:31.301Z,99350.47
2022-12-11T16:52:35.231Z,99357.41
2022-12-11T16:55:39.648Z,99348.62
2022-12-11T16:58:42.507Z,99344.25
2022-12-11T17:01:45.757Z,99343.34
2022-12-11T17:04:53.722Z,99340.75
2022-12-11T17:07:56.633Z,99348.56
2022-12-11T17:10:59.643Z,99344.06
2022-12-11T17:14:02.351Z,99351.06
2022-12-11T17:17:05.192Z,99352.00
2022-12-11T17:20:09.123Z,99348.47
2022-12-11T17:23:13.525Z,99336.22
2022-12-11T17:26:16.611Z,99339.66
2022-12-11T17:29:20.081Z,99316.50
2022-12-11T17:32:22.654Z,99339.50
2022-12-11T17:35:25.689Z,99341.41
2022-12-11T17:38:28.815Z,99345.91
2022-12-11T17:41:32.644Z,99353.69
2022-12-11T17:44:36.259Z,99358.00
2022-12-11T17:47:40.359Z,99355.53
2022-12-11T17:50:44.035Z,99360.75
2022-12-11T17:53:47.789Z,99359.00
2022-12-11T17:56:50.963Z,99364.22
2022-12-11T17:59:55.099Z,99356.31
2022-12-11T18:02:57.770Z,99370.31
2022-12-11T18:06:05.854Z,99356.31
2022-12-11T18:09:08.563Z,99365.09
2022-12-11T18:12:12.111Z,99370.34
2022-12-11T18:15:15.203Z,99372.25
2022-12-11T18:18:18.143Z,99379.22
2022-12-11T18:21:24.302Z,99387.12
2022-12-11T18:24:31.823Z,99386.34
2022-12-11T18:27:34.368Z,99379.25
2022-12-11T18:30:39.029Z,99375.66
2022-12-11T18:33:44.410Z,99388.03
2022-12-11T18:36:47.444Z,99383.69
2022-12-11T18:39:51.209Z,99375.78
2022-12-11T18:42:54.853Z,99388.03
2022-12-11T18:45:57.619Z,99395.81
2022-12-11T18:49:00.649Z,99397.63
2022-12-11T18:52:04.218Z,99404.84
2022-12-11T18:55:07.699Z,99413.56
2022-12-11T18:58:12.115Z,99406.41
2022-12-11T19:01:34.585Z,99407.34
2022-12-11T19:04:37.751Z,99404.81
2022-12-11T19:07:40.818Z,99409.16
2022-12-11T19:10:46.529Z,99413.47
2022-12-11T19:13:50.212Z,99404.63
2022-12-11T19:16:53.294Z,99410.84
2022-12-11T19:19:56.341Z,99412.66
2022-12-11T19:22:59.104Z,99415.34
2022-12-11T19:26:02.445Z,99409.25
2022-12-11T19:29:05.166Z,99420.56
2022-12-11T19:32:08.188Z,99419.63
2022-12-11T19:35:11.442Z,99418.72
2022-12-11T19:38:14.999Z,99424.03
2022-12-11T19:41:27.023Z,99419.56
2022-12-11T19:44:30.373Z,99421.16
2022-12-11T19:47:33.126Z,99433.50
2022-12-11T19:50:36.817Z,99435.97
2022-12-11T19:53:41.323Z,99433.34
2022-12-11T19:56:45.385Z,99429.78
2022-12-11T19:59:52.583Z,99424.28
2022-12-11T20:02:58.859Z,99432.06
2022-12-11T20:06:03.906Z,99434.69
2022-12-11T20:09:10.913Z,99437.25
2022-12-11T20:12:14.044Z,99435.50
2022-12-11T20:15:19.591Z,99431.06
2022-12-11T20:18:22.632Z,99436.16
2022-12-11T20:21:27.248Z,99437.75
2022-12-11T20:24:31.052Z,99430.84
2022-12-11T20:27:33.830Z,99437.06
2022-12-11T20:30:37.057Z,99438.78
2022-12-11T20:33:40.273Z,99444.84
2022-12-11T20:36:43.161Z,99446.59
2022-12-11T20:39:46.000Z,99443.09
2022-12-11T20:42:50.797Z,99435.09
2022-12-11T20:45:53.637Z,99428.78
2022-12-11T20:48:58.724Z,99439.34
2022-12-11T20:52:01.511Z,99437.63
2022-12-11T20:55:05.087Z,99428.00
2022-12-11T20:58:08.917Z,99434.06
2022-12-11T21:01:20.782Z,99426.16
2022-12-11T21:04:23.916Z,99431.38
2022-12-11T21:07:26.914Z,99435.75
2022-12-11T21:10:29.478Z,99433.09
2022-12-11T21:13:32.316Z,99438.28
2022-12-11T21:16:36.699Z,99432.84
2022-12-11T21:19:40.116Z,99430.13
2022-12-11T21:22:42.642Z,99437.37
2022-12-11T21:25:45.470Z,99426.00
2022-12-11T21:28:48.169Z,99435.03
2022-12-11T21:31:51.456Z,99425.44
2022-12-11T21:34:56.867Z,99427.16
2022-12-11T21:37:59.627Z,99423.69
2022-12-11T21:41:23.245Z,99430.69
2022-12-11T21:45:37.138Z,99439.50
2022-12-11T21:47:48.833Z,99425.44
2022-12-11T21:50:51.668Z,99428.00
2022-12-11T21:53:54.365Z,99434.16
2022-12-11T21:56:57.249Z,99427.00
2022-12-11T22:00:00.068Z,99433.22
2022-12-11T22:03:03.449Z,99434.16
2022-12-11T22:06:07.139Z,99437.66
2022-12-11T22:09:12.573Z,99440.50
2022-12-11T22:12:33.325Z,99441.31
2022-12-11T22:15:35.884Z,99437.75
2022-12-11T22:18:38.952Z,99439.50
2022-12-11T22:21:42.075Z,99443.69
2022-12-11T22:24:44.896Z,99434.94
2022-12-11T22:27:47.443Z,99420.81
2022-12-11T22:30:50.323Z,99441.91
2022-12-11T22:33:54.002Z,99449.69
2022-12-11T22:36:56.905Z,99447.97
2022-12-11T22:39:59.392Z,99443.56
2022-12-11T22:43:02.171Z,99450.56
2022-12-11T22:46:04.742Z,99438.19
2022-12-11T22:49:07.550Z,99444.31
2022-12-11T22:52:10.103Z,99438.13
2022-12-11T22:55:13.139Z,99442.41
2022-12-11T22:58:21.595Z,99437.97
2022-12-11T23:01:27.203Z,99438.88
2022-12-11T23:04:29.770Z,99442.38
2022-12-11T23:07:32.641Z,99439.72
2022-12-11T23:10:40.371Z,99443.25
2022-12-11T23:13:43.395Z,99443.28
2022-12-11T23:16:45.977Z,99432.66
2022-12-11T23:19:49.201Z,99438.94
2022-12-11T23:22:51.690Z,99434.50
2022-12-11T23:25:56.726Z,99425.72
2022-12-11T23:29:00.023Z,99428.34
2022-12-11T23:32:03.142Z,99441.59
2022-12-11T23:35:06.046Z,99432.09
2022-12-11T23:38:08.779Z,99440.06
2022-12-11T23:41:13.774Z,99431.31
2022-12-11T23:44:16.526Z,99430.47
2022-12-11T23:47:19.125Z,99428.78
2022-12-11T23:50:22.273Z,99430.41
2022-12-11T23:53:24.867Z,99444.47
2022-12-11T23:56:29.376Z,99448.78
2022-12-11T23:59:31.996Z,99454.00
